343  
SXUS55 KMSO 280224  
OSOMSO  
MONTANA AWOS SUMMARY  
NATIONAL WEATHER SERVICE MISSOULA MT  
723 PM MST THU APR 27 2017  
 
MONTANA AWOS REPORTS  
 
LAUREL |K6S8 280215Z AUTO 32011KT 15SM 04/M01 A2976 RMK AO1 T00441005  
ROUNDUP |KRPX 280215Z AUTO 00000KT 25SM 05/02 A2968 RMK AO1 T00500022  
 
CLICK HERE TO GO TO PREVIOUS BULLETINS.

The Nexlab MT Page
The Nexlab ID Page Main Text Page